createdAt,value
2023-01-08T00:02:14.419Z,100527.88
2023-01-08T00:04:41.903Z,100525.50
2023-01-08T00:07:10.053Z,100521.41
2023-01-08T00:09:37.590Z,100520.16
2023-01-08T00:12:05.839Z,100517.63
2023-01-08T00:14:33.598Z,100511.31
2023-01-08T00:17:02.830Z,100517.28
2023-01-08T00:19:31.232Z,100509.41
2023-01-08T00:21:59.098Z,100517.53
2023-01-08T00:24:26.556Z,100510.66
2023-01-08T00:26:54.386Z,100504.84
2023-01-08T00:29:21.881Z,100516.13
2023-01-08T00:31:49.714Z,100510.94
2023-01-08T00:34:17.220Z,100514.69
2023-01-08T00:36:45.122Z,100513.91
2023-01-08T00:39:12.776Z,100511.53
2023-01-08T00:41:44.284Z,100506.69
2023-01-08T00:44:11.835Z,100509.34
2023-01-08T00:46:39.655Z,100516.25
2023-01-08T00:49:07.268Z,100516.88
2023-01-08T00:51:35.101Z,100517.66
2023-01-08T00:54:02.550Z,100511.06
2023-01-08T00:56:30.460Z,100520.44
2023-01-08T00:58:58.293Z,100519.19
2023-01-08T01:01:26.379Z,100521.38
2023-01-08T01:03:53.940Z,100518.72
2023-01-08T01:06:22.036Z,100525.13
2023-01-08T01:08:49.649Z,100516.34
2023-01-08T01:11:25.109Z,100519.66
2023-01-08T01:13:55.339Z,100525.00
2023-01-08T01:16:24.343Z,100520.94
2023-01-08T01:18:52.529Z,100522.19
2023-01-08T01:21:27.155Z,100514.06
2023-01-08T01:23:57.590Z,100515.22
2023-01-08T01:26:27.284Z,100521.06
2023-01-08T01:28:57.992Z,100516.06
2023-01-08T01:31:29.655Z,100519.38
2023-01-08T01:33:57.193Z,100524.00
2023-01-08T01:36:26.828Z,100518.66
2023-01-08T01:38:57.248Z,100512.22
2023-01-08T01:41:34.031Z,100516.34
2023-01-08T01:44:43.685Z,100517.91
2023-01-08T01:47:28.406Z,100514.63
2023-01-08T01:50:09.345Z,100509.91
2023-01-08T01:52:55.182Z,100511.16
2023-01-08T01:55:22.753Z,100511.94
2023-01-08T01:58:01.664Z,100520.59
2023-01-08T02:00:29.654Z,100509.59
2023-01-08T02:02:57.618Z,100508.50
2023-01-08T02:05:49.865Z,100507.41
2023-01-08T02:09:07.941Z,100495.47
2023-01-08T02:12:19.079Z,100505.38
2023-01-08T02:15:05.176Z,100491.72
2023-01-08T02:17:43.712Z,100494.22
2023-01-08T02:20:19.134Z,100495.63
2023-01-08T02:22:58.073Z,100498.59
2023-01-08T02:25:55.399Z,100489.81
2023-01-08T02:28:24.511Z,100495.00
2023-01-08T02:31:13.172Z,100493.41
2023-01-08T02:33:41.157Z,100491.53
2023-01-08T02:36:46.892Z,100497.66
2023-01-08T02:39:30.813Z,100490.75
2023-01-08T02:42:27.055Z,100497.16
2023-01-08T02:45:35.802Z,100483.81
2023-01-08T02:48:30.266Z,100488.19
2023-01-08T02:51:40.319Z,100484.56
2023-01-08T02:54:15.640Z,100480.00
2023-01-08T02:56:49.253Z,100482.34
2023-01-08T02:59:19.377Z,100483.91
2023-01-08T03:01:47.592Z,100479.34
2023-01-08T03:04:21.278Z,100469.31
2023-01-08T03:06:49.671Z,100476.81
2023-01-08T03:09:18.669Z,100475.13
2023-01-08T03:12:12.055Z,100470.91
2023-01-08T03:14:43.683Z,100476.56
2023-01-08T03:17:28.518Z,100477.66
2023-01-08T03:20:14.114Z,100483.47
2023-01-08T03:22:45.918Z,100491.97
2023-01-08T03:25:17.420Z,100487.72
2023-01-08T03:27:54.784Z,100485.69
2023-01-08T03:30:24.855Z,100486.88
2023-01-08T03:32:54.418Z,100485.94
2023-01-08T03:35:25.216Z,100486.56
2023-01-08T03:38:05.005Z,100479.78
2023-01-08T03:40:44.787Z,100491.88
2023-01-08T03:43:12.557Z,100487.44
2023-01-08T03:45:50.128Z,100472.69
2023-01-08T03:48:21.461Z,100475.19
2023-01-08T03:50:49.583Z,100480.97
2023-01-08T03:53:17.481Z,100478.44
2023-01-08T03:55:45.373Z,100487.84
2023-01-08T03:58:12.936Z,100487.66
2023-01-08T04:00:40.905Z,100486.22
2023-01-08T04:03:08.590Z,100490.91
2023-01-08T04:05:36.787Z,100484.63
2023-01-08T04:08:04.541Z,100492.75
2023-01-08T04:10:32.481Z,100484.88
2023-01-08T04:13:00.092Z,100488.16
2023-01-08T04:15:27.962Z,100486.09
2023-01-08T04:17:55.524Z,100492.84
2023-01-08T04:20:23.318Z,100496.56
2023-01-08T04:22:50.922Z,100485.75
2023-01-08T04:25:19.377Z,100502.50
2023-01-08T04:27:46.866Z,100494.03
2023-01-08T04:30:14.839Z,100499.97
2023-01-08T04:32:42.427Z,100493.56
2023-01-08T04:35:10.664Z,100493.09
2023-01-08T04:37:38.189Z,100495.88
2023-01-08T04:40:06.971Z,100499.00
2023-01-08T04:42:34.496Z,100490.03
2023-01-08T04:45:02.495Z,100497.06
2023-01-08T04:47:30.022Z,100505.38
2023-01-08T04:49:57.981Z,100490.78
2023-01-08T04:52:25.520Z,100489.97
2023-01-08T04:54:54.545Z,100498.91
2023-01-08T04:57:22.051Z,100496.53
2023-01-08T04:59:49.874Z,100509.56
2023-01-08T05:02:17.522Z,100509.56
2023-01-08T05:04:45.461Z,100503.41
2023-01-08T05:07:12.928Z,100512.22
2023-01-08T05:09:40.929Z,100505.78
2023-01-08T05:12:08.393Z,100514.25
2023-01-08T05:14:36.199Z,100511.13
2023-01-08T05:17:03.773Z,100516.91
2023-01-08T05:19:31.603Z,100518.03
2023-01-08T05:21:59.264Z,100514.25
2023-01-08T05:24:27.120Z,100515.06
2023-01-08T05:26:54.659Z,100511.78
2023-01-08T05:29:22.587Z,100510.88
2023-01-08T05:31:50.033Z,100517.97
2023-01-08T05:34:17.913Z,100521.28
2023-01-08T05:36:45.506Z,100532.94
2023-01-08T05:39:13.500Z,100531.22
2023-01-08T05:41:41.090Z,100531.09
2023-01-08T05:44:10.623Z,100532.69
2023-01-08T05:46:38.266Z,100527.66
2023-01-08T05:49:06.082Z,100526.84
2023-01-08T05:51:33.569Z,100535.97
2023-01-08T05:54:01.410Z,100535.16
2023-01-08T05:56:28.841Z,100540.31
2023-01-08T05:58:56.822Z,100534.50
2023-01-08T06:01:24.402Z,100531.34
2023-01-08T06:03:56.795Z,100528.19
2023-01-08T06:06:24.477Z,100535.72
2023-01-08T06:08:52.481Z,100525.84
2023-01-08T06:11:20.093Z,100528.19
2023-01-08T06:13:47.932Z,100518.03
2023-01-08T06:16:17.434Z,100515.22
2023-01-08T06:18:45.323Z,100514.34
2023-01-08T06:21:13.531Z,100513.69
2023-01-08T06:23:41.621Z,100517.81
2023-01-08T06:26:09.293Z,100510.31
2023-01-08T06:28:37.121Z,100510.47
2023-01-08T06:31:04.993Z,100513.13
2023-01-08T06:33:33.754Z,100515.19
2023-01-08T06:36:04.557Z,100503.44
2023-01-08T06:38:35.033Z,100506.47
2023-01-08T06:41:08.688Z,100510.59
2023-01-08T06:43:38.702Z,100513.59
2023-01-08T06:46:08.864Z,100515.00
2023-01-08T06:48:37.455Z,100513.94
2023-01-08T06:51:05.375Z,100512.03
2023-01-08T06:53:33.474Z,100514.41
2023-01-08T06:56:02.312Z,100518.34
2023-01-08T06:58:30.533Z,100518.53
2023-01-08T07:00:59.125Z,100513.06
2023-01-08T07:03:27.408Z,100527.19
2023-01-08T07:05:56.111Z,100536.81
2023-01-08T07:08:24.362Z,100537.34
2023-01-08T07:10:51.812Z,100532.81
2023-01-08T07:13:19.795Z,100532.53
2023-01-08T07:15:47.308Z,100545.13
2023-01-08T07:18:15.307Z,100543.09
2023-01-08T07:20:42.781Z,100555.50
2023-01-08T07:23:12.515Z,100558.34
2023-01-08T07:25:40.440Z,100557.22
2023-01-08T07:28:12.777Z,100558.50
2023-01-08T07:30:41.253Z,100565.91
2023-01-08T07:33:09.396Z,100565.91
2023-01-08T07:35:39.013Z,100572.31
2023-01-08T07:38:06.988Z,100571.69
2023-01-08T07:40:34.663Z,100571.69
2023-01-08T07:43:04.901Z,100562.25
2023-01-08T07:45:32.652Z,100567.00
2023-01-08T07:48:01.113Z,100564.47
2023-01-08T07:50:29.042Z,100562.75
2023-01-08T07:53:01.560Z,100565.28
2023-01-08T07:55:30.788Z,100559.28
2023-01-08T07:57:58.916Z,100562.91
2023-01-08T08:00:27.195Z,100568.09
2023-01-08T08:02:55.209Z,100558.97
2023-01-08T08:05:22.970Z,100559.94
2023-01-08T08:07:50.897Z,100563.22
2023-01-08T08:10:18.578Z,100557.25
2023-01-08T08:12:46.413Z,100553.31
2023-01-08T08:15:14.315Z,100554.56
2023-01-08T08:17:48.615Z,100550.94
2023-01-08T08:20:16.808Z,100553.16
2023-01-08T08:22:44.924Z,100554.53
2023-01-08T08:25:15.280Z,100549.34
2023-01-08T08:27:44.220Z,100546.03
2023-01-08T08:30:13.181Z,100551.66
2023-01-08T08:32:41.050Z,100546.94
2023-01-08T08:35:09.054Z,100552.13
2023-01-08T08:37:36.798Z,100548.97
2023-01-08T08:40:04.695Z,100549.25
2023-01-08T08:42:32.599Z,100544.97
2023-01-08T08:45:00.000Z,100544.78
2023-01-08T08:47:27.836Z,100540.81
2023-01-08T08:49:55.348Z,100541.91
2023-01-08T08:52:23.129Z,100539.06
2023-01-08T08:54:50.718Z,100534.78
2023-01-08T08:57:19.550Z,100538.84
2023-01-08T08:59:47.118Z,100542.88
2023-01-08T09:02:15.136Z,100537.34
2023-01-08T09:04:42.756Z,100551.00
2023-01-08T09:07:10.795Z,100547.38
2023-01-08T09:09:38.338Z,100549.06
2023-01-08T09:12:07.519Z,100540.06
2023-01-08T09:14:34.993Z,100548.25
2023-01-08T09:17:02.877Z,100545.38
2023-01-08T09:19:30.400Z,100539.00
2023-01-08T09:21:58.148Z,100536.94
2023-01-08T09:24:25.668Z,100538.94
2023-01-08T09:26:54.679Z,100535.59
2023-01-08T09:29:22.261Z,100541.91
2023-01-08T09:31:50.339Z,100533.53
2023-01-08T09:34:17.951Z,100526.72
2023-01-08T09:36:45.741Z,100522.28
2023-01-08T09:39:13.314Z,100531.56
2023-01-08T09:41:47.658Z,100520.63
2023-01-08T09:44:28.032Z,100516.97
2023-01-08T09:46:56.861Z,100512.03
2023-01-08T09:49:44.955Z,100504.25
2023-01-08T09:52:15.108Z,100497.13
2023-01-08T09:54:42.657Z,100491.53
2023-01-08T09:57:18.163Z,100490.53
2023-01-08T09:59:48.043Z,100487.75
2023-01-08T10:02:22.875Z,100488.78
2023-01-08T10:04:57.568Z,100488.22
2023-01-08T10:07:27.856Z,100487.06
2023-01-08T10:09:56.476Z,100474.63
2023-01-08T10:12:31.876Z,100464.53
2023-01-08T10:15:15.822Z,100472.50
2023-01-08T10:18:02.256Z,100463.88
2023-01-08T10:20:31.703Z,100456.06
2023-01-08T10:23:17.744Z,100452.34
2023-01-08T10:26:00.730Z,100441.81
2023-01-08T10:28:38.080Z,100441.59
2023-01-08T10:31:11.471Z,100440.22
2023-01-08T10:33:46.546Z,100444.66
2023-01-08T10:36:19.048Z,100443.31
2023-01-08T10:39:00.855Z,100437.38
2023-01-08T10:41:29.368Z,100439.81
2023-01-08T10:44:04.893Z,100434.63
2023-01-08T10:46:36.948Z,100427.88
2023-01-08T10:49:07.858Z,100429.63
2023-01-08T10:51:35.495Z,100428.69
2023-01-08T10:54:24.441Z,100426.63
2023-01-08T10:56:51.948Z,100418.06
2023-01-08T10:59:22.161Z,100417.56
2023-01-08T11:01:52.739Z,100423.22
2023-01-08T11:04:35.330Z,100421.91
2023-01-08T11:07:07.054Z,100413.69
2023-01-08T11:09:46.488Z,100409.31
2023-01-08T11:12:41.082Z,100409.66
2023-01-08T11:15:39.240Z,100404.22
2023-01-08T11:18:27.278Z,100387.94
2023-01-08T11:21:24.448Z,100400.16
2023-01-08T11:24:18.676Z,100399.75
2023-01-08T11:26:57.240Z,100396.63
2023-01-08T11:30:00.959Z,100399.63
2023-01-08T11:32:46.932Z,100398.75
2023-01-08T11:35:43.966Z,100392.06
2023-01-08T11:38:13.769Z,100379.16
2023-01-08T11:40:58.945Z,100375.91
2023-01-08T11:44:23.999Z,100376.09
2023-01-08T11:47:43.061Z,100370.50
2023-01-08T11:50:28.377Z,100365.56
2023-01-08T11:53:18.029Z,100362.22
2023-01-08T11:56:08.009Z,100355.00
2023-01-08T11:58:55.592Z,100350.09
2023-01-08T12:01:51.340Z,100341.78
2023-01-08T12:04:29.034Z,100343.09
2023-01-08T12:07:04.966Z,100346.69
2023-01-08T12:09:48.886Z,100341.00
2023-01-08T12:22:08.893Z,100334.72
2023-01-08T12:25:03.329Z,100324.47
2023-01-08T12:28:18.310Z,100318.81
2023-01-08T12:31:28.625Z,100309.19
2023-01-08T12:34:12.300Z,100322.41
2023-01-08T12:36:54.986Z,100319.47
2023-01-08T12:39:36.144Z,100310.28
2023-01-08T12:42:14.167Z,100309.56
2023-01-08T12:44:41.914Z,100308.81
2023-01-08T12:47:18.486Z,100300.34
2023-01-08T12:50:04.301Z,100296.50
2023-01-08T12:52:53.714Z,100301.19
2023-01-08T12:55:56.213Z,100296.56
2023-01-08T12:58:39.676Z,100293.47
2023-01-08T13:01:49.590Z,100296.97
2023-01-08T13:04:18.224Z,100294.25
2023-01-08T13:07:03.341Z,100289.59
2023-01-08T13:09:32.905Z,100284.16
2023-01-08T13:12:00.920Z,100280.25
2023-01-08T13:14:29.181Z,100280.97
2023-01-08T13:17:08.087Z,100283.28
2023-01-08T13:19:44.875Z,100287.50
2023-01-08T13:22:34.388Z,100283.22
2023-01-08T13:25:17.483Z,100280.78
2023-01-08T13:27:46.975Z,100283.03
2023-01-08T13:30:38.993Z,100276.06
2023-01-08T13:33:26.539Z,100281.06
2023-01-08T13:36:12.814Z,100276.31
2023-01-08T13:38:41.135Z,100280.44
2023-01-08T13:41:31.656Z,100278.81
2023-01-08T13:44:16.328Z,100270.88
2023-01-08T13:46:52.823Z,100273.16
2023-01-08T13:49:53.254Z,100274.75
2023-01-08T13:52:34.724Z,100277.38
2023-01-08T13:55:19.990Z,100282.25
2023-01-08T13:57:53.777Z,100275.53
2023-01-08T14:00:45.619Z,100273.69
2023-01-08T14:03:30.231Z,100275.56
2023-01-08T14:06:21.552Z,100277.72
2023-01-08T14:08:53.224Z,100270.06
2023-01-08T14:11:24.636Z,100267.88
2023-01-08T14:13:52.578Z,100284.53
2023-01-08T14:16:21.679Z,100282.59
2023-01-08T14:18:51.198Z,100282.25
2023-01-08T14:21:23.512Z,100280.38
2023-01-08T14:23:54.038Z,100276.16
2023-01-08T14:26:36.635Z,100281.25
2023-01-08T14:29:22.657Z,100274.69
2023-01-08T14:31:57.519Z,100285.09
2023-01-08T14:34:30.087Z,100278.69
2023-01-08T14:36:57.854Z,100275.34
2023-01-08T14:39:31.632Z,100273.06
2023-01-08T14:42:26.012Z,100281.00
2023-01-08T14:45:01.998Z,100280.19
2023-01-08T14:47:36.867Z,100283.72
2023-01-08T14:50:06.008Z,100278.84
2023-01-08T14:52:35.495Z,100277.78
2023-01-08T14:55:03.956Z,100281.31
2023-01-08T14:57:31.711Z,100275.66
2023-01-08T15:00:02.429Z,100266.56
2023-01-08T15:02:33.807Z,100262.84
2023-01-08T15:05:14.271Z,100268.00
2023-01-08T15:08:21.523Z,100276.63
2023-01-08T15:11:06.754Z,100269.00
2023-01-08T15:13:40.464Z,100258.06
2023-01-08T15:16:21.853Z,100270.91
2023-01-08T15:19:14.995Z,100262.31
2023-01-08T15:21:59.500Z,100256.78
2023-01-08T15:24:41.567Z,100268.56
2023-01-08T15:27:19.953Z,100258.75
2023-01-08T15:30:00.926Z,100270.47
2023-01-08T15:32:34.709Z,100258.00
2023-01-08T15:35:02.744Z,100254.31
2023-01-08T15:37:30.572Z,100257.94
2023-01-08T15:39:58.183Z,100246.69
2023-01-08T15:42:51.011Z,100252.22
2023-01-08T15:45:25.022Z,100249.69
2023-01-08T15:47:52.888Z,100251.03
2023-01-08T15:50:20.837Z,100247.06
2023-01-08T15:52:48.953Z,100250.00
2023-01-08T15:55:21.783Z,100243.72
2023-01-08T15:57:50.355Z,100246.66
2023-01-08T16:00:20.313Z,100241.19
2023-01-08T16:02:51.564Z,100241.09
2023-01-08T16:05:22.302Z,100247.94
2023-01-08T16:07:50.542Z,100247.81
2023-01-08T16:10:18.553Z,100240.47
2023-01-08T16:12:47.275Z,100243.16
2023-01-08T16:15:16.616Z,100231.59
2023-01-08T16:17:45.039Z,100246.47
2023-01-08T16:20:14.238Z,100231.16
2023-01-08T16:22:42.202Z,100234.50
2023-01-08T16:25:10.465Z,100237.19
2023-01-08T16:27:39.502Z,100234.41
2023-01-08T16:30:10.560Z,100237.75
2023-01-08T16:32:38.416Z,100232.28
2023-01-08T16:35:07.145Z,100234.88
2023-01-08T16:37:34.979Z,100229.19
2023-01-08T16:40:02.612Z,100227.97
2023-01-08T16:42:30.784Z,100229.19
2023-01-08T16:44:58.304Z,100234.09
2023-01-08T16:47:26.173Z,100231.00
2023-01-08T16:49:54.563Z,100228.75
2023-01-08T16:52:22.486Z,100231.09
2023-01-08T16:54:49.989Z,100230.41
2023-01-08T16:57:17.875Z,100234.19
2023-01-08T16:59:45.508Z,100225.81
2023-01-08T17:02:13.422Z,100224.34
2023-01-08T17:04:40.977Z,100224.81
2023-01-08T17:07:08.920Z,100217.97
2023-01-08T17:09:36.824Z,100208.47
2023-01-08T17:12:05.154Z,100209.56
2023-01-08T17:14:32.789Z,100210.81
2023-01-08T17:17:00.805Z,100201.31
2023-01-08T17:19:28.401Z,100201.75
2023-01-08T17:21:56.306Z,100207.22
2023-01-08T17:24:24.261Z,100205.00
2023-01-08T17:26:58.749Z,100205.66
2023-01-08T17:29:59.278Z,100206.44
2023-01-08T17:33:51.429Z,100211.38
2023-01-08T17:36:34.437Z,100209.38
2023-01-08T17:39:05.177Z,100211.59
2023-01-08T17:41:54.779Z,100208.47
2023-01-08T17:44:23.221Z,100220.22
2023-01-08T17:46:50.876Z,100216.28
2023-01-08T17:49:19.396Z,100218.53
2023-01-08T17:51:46.988Z,100213.84
2023-01-08T17:54:17.154Z,100207.38
2023-01-08T17:56:45.246Z,100213.41
2023-01-08T17:59:18.367Z,100211.41
2023-01-08T18:01:46.314Z,100210.19
2023-01-08T18:04:15.239Z,100207.41
2023-01-08T18:06:44.197Z,100207.75
2023-01-08T18:09:12.720Z,100206.84
2023-01-08T18:11:42.094Z,100212.09
2023-01-08T18:14:13.702Z,100199.03
2023-01-08T18:16:45.519Z,100203.19
2023-01-08T18:19:15.795Z,100204.19
2023-01-08T18:21:47.887Z,100196.47
2023-01-08T18:24:19.094Z,100215.59
2023-01-08T18:26:46.742Z,100208.25
2023-01-08T18:29:20.705Z,100210.13
2023-01-08T18:31:51.132Z,100207.00
2023-01-08T18:34:20.008Z,100214.59
2023-01-08T18:36:50.962Z,100212.16
2023-01-08T18:39:22.564Z,100217.09
2023-01-08T18:42:16.388Z,100211.63
2023-01-08T18:44:48.449Z,100205.78
2023-01-08T18:47:17.753Z,100220.00
2023-01-08T18:49:46.871Z,100207.34
2023-01-08T18:52:15.216Z,100205.44
2023-01-08T18:54:43.232Z,100215.28
2023-01-08T18:57:11.152Z,100207.59
2023-01-08T18:59:39.023Z,100200.53
2023-01-08T19:02:06.729Z,100200.09
2023-01-08T19:04:36.205Z,100201.56
2023-01-08T19:07:04.060Z,100196.88
2023-01-08T19:09:32.163Z,100195.63
2023-01-08T19:11:59.710Z,100194.84
2023-01-08T19:14:27.494Z,100189.06
2023-01-08T19:16:56.500Z,100189.81
2023-01-08T19:19:24.837Z,100193.63
2023-01-08T19:21:52.308Z,100189.38
2023-01-08T19:24:21.076Z,100185.72
2023-01-08T19:26:48.613Z,100189.16
2023-01-08T19:29:17.087Z,100181.56
2023-01-08T19:31:45.275Z,100178.22
2023-01-08T19:34:13.393Z,100187.13
2023-01-08T19:36:43.738Z,100178.66
2023-01-08T19:39:11.820Z,100177.09
2023-01-08T19:41:58.694Z,100181.66
2023-01-08T19:44:26.629Z,100182.00
2023-01-08T19:46:54.541Z,100180.91
2023-01-08T19:49:23.660Z,100185.59
2023-01-08T19:51:52.696Z,100181.34
2023-01-08T19:54:31.554Z,100189.38
2023-01-08T19:56:59.804Z,100185.59
2023-01-08T19:59:27.745Z,100184.47
2023-01-08T20:01:55.338Z,100175.66
2023-01-08T20:04:23.211Z,100180.66
2023-01-08T20:06:52.439Z,100187.13
2023-01-08T20:09:20.244Z,100181.88
2023-01-08T20:11:47.719Z,100181.13
2023-01-08T20:14:15.638Z,100182.69
2023-01-08T20:16:43.211Z,100175.75
2023-01-08T20:19:11.136Z,100175.09
2023-01-08T20:21:39.104Z,100182.03
2023-01-08T20:24:12.201Z,100174.41
2023-01-08T20:26:44.449Z,100175.97
2023-01-08T20:29:14.762Z,100167.59
2023-01-08T20:31:44.207Z,100172.59
2023-01-08T20:34:15.642Z,100175.63
2023-01-08T20:36:45.277Z,100169.16
2023-01-08T20:39:16.629Z,100160.78
2023-01-08T20:41:55.259Z,100163.47
2023-01-08T20:44:29.031Z,100163.78
2023-01-08T20:46:56.659Z,100156.53
2023-01-08T20:49:26.646Z,100145.38
2023-01-08T20:51:59.180Z,100154.97
2023-01-08T20:54:30.002Z,100153.41
2023-01-08T20:56:59.137Z,100141.91
2023-01-08T20:59:28.283Z,100140.78
2023-01-08T21:02:22.111Z,100139.91
2023-01-08T21:05:36.355Z,100139.00
2023-01-08T21:08:06.550Z,100131.75
2023-01-08T21:10:35.788Z,100131.75
2023-01-08T21:13:03.732Z,100132.88
2023-01-08T21:15:31.410Z,100126.16
2023-01-08T21:17:59.407Z,100135.66
2023-01-08T21:20:27.028Z,100131.53
2023-01-08T21:22:57.238Z,100121.59
2023-01-08T21:25:24.979Z,100126.63
2023-01-08T21:27:52.870Z,100122.72
2023-01-08T21:30:27.108Z,100131.41
2023-01-08T21:32:58.076Z,100122.41
2023-01-08T21:35:27.461Z,100118.38
2023-01-08T21:37:55.376Z,100113.69
2023-01-08T21:40:23.068Z,100112.38
2023-01-08T21:43:10.091Z,100110.34
2023-01-08T21:45:37.705Z,100112.38
2023-01-08T21:48:06.143Z,100111.34
2023-01-08T21:50:33.863Z,100109.66
2023-01-08T21:53:20.435Z,100111.91
2023-01-08T21:55:47.879Z,100106.34
2023-01-08T21:58:16.596Z,100100.53
2023-01-08T22:00:44.116Z,100099.28
2023-01-08T22:03:11.982Z,100109.88
2023-01-08T22:05:39.555Z,100109.00
2023-01-08T22:08:08.729Z,100109.78
2023-01-08T22:10:36.386Z,100106.53
2023-01-08T22:13:04.650Z,100108.09
2023-01-08T22:15:32.356Z,100107.94
2023-01-08T22:18:00.234Z,100100.25
2023-01-08T22:20:27.779Z,100101.81
2023-01-08T22:22:55.661Z,100098.69
2023-01-08T22:25:23.235Z,100092.09
2023-01-08T22:27:55.457Z,100091.78
2023-01-08T22:30:23.507Z,100096.47
2023-01-08T22:32:51.321Z,100084.88
2023-01-08T22:35:18.887Z,100082.19
2023-01-08T22:37:47.244Z,100076.38
2023-01-08T22:40:15.522Z,100074.03
2023-01-08T22:42:43.418Z,100070.25
2023-01-08T22:45:11.279Z,100066.91
2023-01-08T22:47:39.087Z,100059.22
2023-01-08T22:50:07.578Z,100064.13
2023-01-08T22:52:35.423Z,100066.47
2023-01-08T22:55:03.104Z,100058.88
2023-01-08T22:57:30.949Z,100043.59
2023-01-08T22:59:58.789Z,100050.97
2023-01-08T23:02:26.690Z,100053.44
2023-01-08T23:04:55.765Z,100047.75
2023-01-08T23:07:23.659Z,100042.25
2023-01-08T23:09:51.965Z,100047.56
2023-01-08T23:12:20.995Z,100044.22
2023-01-08T23:14:48.701Z,100039.63
2023-01-08T23:17:44.594Z,100031.25
2023-01-08T23:20:20.741Z,100024.78
2023-01-08T23:22:49.293Z,100027.22
2023-01-08T23:25:17.006Z,100020.28
2023-01-08T23:27:45.993Z,100021.84
2023-01-08T23:30:13.889Z,100016.72
2023-01-08T23:32:41.758Z,100001.84
2023-01-08T23:35:09.742Z,100004.84
2023-01-08T23:37:37.575Z,100002.53
2023-01-08T23:40:05.826Z,99996.50
2023-01-08T23:42:33.690Z,99996.50
2023-01-08T23:45:01.311Z,99995.69
2023-01-08T23:47:29.489Z,99993.91
2023-01-08T23:49:57.138Z,99991.66
2023-01-08T23:52:25.162Z,99985.34
2023-01-08T23:54:52.841Z,99974.47
2023-01-08T23:57:20.786Z,99977.94
2023-01-08T23:59:48.601Z,99985.25
